Aeroporto :
LOGIN :

Iscrizione | Disclaimer

   EN    FR    IT 

 










Sommario :    VFR   VFR Marginale   IFR   IFR Intensivo   IFR Molto Intensivo
Visibilità : 
Base nubi : 
>= 8 km
>= 3000ft
5 / 8 km
1000 / 3000 ft
1500m / 5 km
500 / 1000 ft
800 / 1500m
200 / 500 ft
< 800m
< 200 ft
Simboli :   Temporali  Nebbia  Neve Forte  Precipitazioni Forti  Vento > 20 kt
SIGMETs :   Varie  Temporali  Ghiacco  Turbolenza  Onda orograficha  Ceneri Vulcaniche






- Altitudine del aeroporto : 397 ft
- Codice IATA : IAS


LRIA - Iasi

ULTIMO METAR :
  • 291330Z VRB03KT 9999 FEW043 09/M04 Q1016

METARs OBSOLETI :
  • 291300Z 21005KT 160V250 9999 FEW035 08/M04 Q1016
  • 291230Z VRB04KT 9999 FEW032 08/M04 Q1016
  • 291200Z 34004KT 280V060 9999 FEW030 08/M01 Q1017
  • 291130Z 34004KT 270V050 9999 FEW030 07/M01 Q1017
  • 291100Z 31005KT 260V010 9999 SCT021 06/M02 Q1017

TAF TAF LRIA
Valido dal 29 a 12 ore il 29 a 21 ore UTC


291100Z 2912/2921 31006KT 9999 SCT030
BECMG 2919/2921 18010KT



MetMap, La meteo Aeronautica in un colpo d'occhio ! - Copyright ORBIFLY Dicembre 2007 - Disclaimer

ORBIFLY MET'MAP TEAM :

Programmazione e sviluppo : Alexandra Zaïnal
Concezione : Baudouin d'Aumeries
Aiuto per la programmazione : Marc-Olivier Méhu
Supporto tecnico e logistico : Manuel Goepfert
Aiuto per la traduzione : Arnaldo La Scala

Contatto : metmap@orbifly.com




FONTI E CREDITI :

   NOAA